sensor_id;sensor_type;location;lat;lon;timestamp;temperature;humidity
44229;DHT22;29904;51.058;5.378;2022-12-18T00:01:37;-5.60;99.90
44229;DHT22;29904;51.058;5.378;2022-12-18T00:04:04;-5.60;99.90
44229;DHT22;29904;51.058;5.378;2022-12-18T00:06:34;-5.70;99.90
44229;DHT22;29904;51.058;5.378;2022-12-18T00:09:00;-5.60;99.90
44229;DHT22;29904;51.058;5.378;2022-12-18T00:11:29;-5.60;99.90
44229;DHT22;29904;51.058;5.378;2022-12-18T00:13:56;-5.60;99.90
44229;DHT22;29904;51.058;5.378;2022-12-18T00:16:24;-5.60;99.90
44229;DHT22;29904;51.058;5.378;2022-12-18T00:18:53;-5.60;99.90
44229;DHT22;29904;51.058;5.378;2022-12-18T00:21:20;-5.70;99.90
44229;DHT22;29904;51.058;5.378;2022-12-18T00:23:47;-5.80;99.90
44229;DHT22;29904;51.058;5.378;2022-12-18T00:26:16;-5.80;99.90
44229;DHT22;29904;51.058;5.378;2022-12-18T00:28:43;-5.80;99.90
44229;DHT22;29904;51.058;5.378;2022-12-18T00:31:18;-5.80;99.90
44229;DHT22;29904;51.058;5.378;2022-12-18T00:33:44;-5.80;99.90
44229;DHT22;29904;51.058;5.378;2022-12-18T00:36:19;-5.80;99.90
44229;DHT22;29904;51.058;5.378;2022-12-18T00:38:45;-5.80;99.90
44229;DHT22;29904;51.058;5.378;2022-12-18T00:41:13;-5.80;99.90
44229;DHT22;29904;51.058;5.378;2022-12-18T00:43:40;-5.90;99.90
44229;DHT22;29904;51.058;5.378;2022-12-18T00:46:08;-5.90;99.90
44229;DHT22;29904;51.058;5.378;2022-12-18T00:48:34;-5.90;99.90
44229;DHT22;29904;51.058;5.378;2022-12-18T00:51:00;-5.90;99.90
44229;DHT22;29904;51.058;5.378;2022-12-18T00:53:27;-5.90;99.90
44229;DHT22;29904;51.058;5.378;2022-12-18T00:55:53;-5.90;99.90
44229;DHT22;29904;51.058;5.378;2022-12-18T00:58:19;-6.00;99.90
44229;DHT22;29904;51.058;5.378;2022-12-18T01:00:44;-6.00;99.90
44229;DHT22;29904;51.058;5.378;2022-12-18T01:03:13;-6.10;99.90
44229;DHT22;29904;51.058;5.378;2022-12-18T01:05:41;-6.00;99.90
44229;DHT22;29904;51.058;5.378;2022-12-18T01:08:07;-6.00;99.90
44229;DHT22;29904;51.058;5.378;2022-12-18T01:10:33;-6.10;99.90
44229;DHT22;29904;51.058;5.378;2022-12-18T01:12:59;-6.10;99.90
44229;DHT22;29904;51.058;5.378;2022-12-18T01:15:24;-6.10;99.90
44229;DHT22;29904;51.058;5.378;2022-12-18T01:17:52;-6.20;99.90
44229;DHT22;29904;51.058;5.378;2022-12-18T01:20:18;-6.20;99.90
44229;DHT22;29904;51.058;5.378;2022-12-18T01:22:46;-6.30;99.90
44229;DHT22;29904;51.058;5.378;2022-12-18T01:25:11;-6.20;99.90
44229;DHT22;29904;51.058;5.378;2022-12-18T01:27:37;-6.20;99.90
44229;DHT22;29904;51.058;5.378;2022-12-18T01:30:03;-6.10;99.90
44229;DHT22;29904;51.058;5.378;2022-12-18T01:32:30;-6.00;99.90
44229;DHT22;29904;51.058;5.378;2022-12-18T01:34:57;-6.00;99.90
44229;DHT22;29904;51.058;5.378;2022-12-18T01:37:24;-6.00;99.90
44229;DHT22;29904;51.058;5.378;2022-12-18T01:39:52;-6.10;99.90
44229;DHT22;29904;51.058;5.378;2022-12-18T01:42:19;-6.10;99.90
44229;DHT22;29904;51.058;5.378;2022-12-18T01:50:21;-6.20;99.90
44229;DHT22;29904;51.058;5.378;2022-12-18T01:53:12;-6.20;99.90
44229;DHT22;29904;51.058;5.378;2022-12-18T01:55:40;-6.20;99.90
44229;DHT22;29904;51.058;5.378;2022-12-18T01:58:07;-6.30;99.90
44229;DHT22;29904;51.058;5.378;2022-12-18T02:00:35;-6.30;99.90
44229;DHT22;29904;51.058;5.378;2022-12-18T02:03:01;-6.30;99.90
44229;DHT22;29904;51.058;5.378;2022-12-18T02:10:59;-6.30;99.90
44229;DHT22;29904;51.058;5.378;2022-12-18T02:16:39;-6.20;99.90
44229;DHT22;29904;51.058;5.378;2022-12-18T02:19:27;-6.20;99.90
44229;DHT22;29904;51.058;5.378;2022-12-18T02:27:31;-6.00;99.90
44229;DHT22;29904;51.058;5.378;2022-12-18T02:29:59;-6.00;99.90
44229;DHT22;29904;51.058;5.378;2022-12-18T02:32:40;-6.00;99.90
44229;DHT22;29904;51.058;5.378;2022-12-18T02:35:12;-6.00;99.90
44229;DHT22;29904;51.058;5.378;2022-12-18T02:37:40;-6.00;99.90
44229;DHT22;29904;51.058;5.378;2022-12-18T02:40:08;-6.00;99.90
44229;DHT22;29904;51.058;5.378;2022-12-18T02:42:36;-6.10;99.90
44229;DHT22;29904;51.058;5.378;2022-12-18T02:45:02;-6.10;99.90
44229;DHT22;29904;51.058;5.378;2022-12-18T02:47:30;-6.10;99.90
44229;DHT22;29904;51.058;5.378;2022-12-18T02:55:59;-6.10;99.90
44229;DHT22;29904;51.058;5.378;2022-12-18T02:58:33;-6.10;99.90
44229;DHT22;29904;51.058;5.378;2022-12-18T03:01:07;-6.10;99.90
44229;DHT22;29904;51.058;5.378;2022-12-18T03:03:41;-6.10;99.90
44229;DHT22;29904;51.058;5.378;2022-12-18T03:06:29;-6.10;99.90
44229;DHT22;29904;51.058;5.378;2022-12-18T03:09:10;-6.00;99.90
44229;DHT22;29904;51.058;5.378;2022-12-18T03:11:41;-6.00;99.90
44229;DHT22;29904;51.058;5.378;2022-12-18T03:14:30;-6.00;99.90
44229;DHT22;29904;51.058;5.378;2022-12-18T03:16:59;-6.00;99.90
44229;DHT22;29904;51.058;5.378;2022-12-18T03:19:28;-6.10;99.90
44229;DHT22;29904;51.058;5.378;2022-12-18T03:21:57;-6.00;99.90
44229;DHT22;29904;51.058;5.378;2022-12-18T03:24:26;-6.00;99.90
44229;DHT22;29904;51.058;5.378;2022-12-18T03:26:57;-6.00;99.90
44229;DHT22;29904;51.058;5.378;2022-12-18T03:31:59;-6.00;99.90
44229;DHT22;29904;51.058;5.378;2022-12-18T03:34:31;-6.00;99.90
44229;DHT22;29904;51.058;5.378;2022-12-18T03:36:57;-6.00;99.90
44229;DHT22;29904;51.058;5.378;2022-12-18T03:39:24;-6.00;99.90
44229;DHT22;29904;51.058;5.378;2022-12-18T03:41:59;-6.10;99.90
44229;DHT22;29904;51.058;5.378;2022-12-18T03:45:04;-6.10;99.90
44229;DHT22;29904;51.058;5.378;2022-12-18T03:53:16;-6.30;99.90
44229;DHT22;29904;51.058;5.378;2022-12-18T03:55:44;-6.30;99.90
44229;DHT22;29904;51.058;5.378;2022-12-18T03:58:13;-6.30;99.90
44229;DHT22;29904;51.058;5.378;2022-12-18T04:00:41;-6.30;99.90
44229;DHT22;29904;51.058;5.378;2022-12-18T04:03:08;-6.30;99.90
44229;DHT22;29904;51.058;5.378;2022-12-18T04:05:35;-6.30;99.90
44229;DHT22;29904;51.058;5.378;2022-12-18T04:08:02;-6.30;99.90
44229;DHT22;29904;51.058;5.378;2022-12-18T04:10:29;-6.20;99.90
44229;DHT22;29904;51.058;5.378;2022-12-18T04:12:58;-6.30;99.90
44229;DHT22;29904;51.058;5.378;2022-12-18T04:15:24;-6.30;99.90
44229;DHT22;29904;51.058;5.378;2022-12-18T04:17:50;-6.30;99.90
44229;DHT22;29904;51.058;5.378;2022-12-18T04:20:16;-6.30;99.90
44229;DHT22;29904;51.058;5.378;2022-12-18T04:22:42;-6.30;99.90
44229;DHT22;29904;51.058;5.378;2022-12-18T04:25:08;-6.30;99.90
44229;DHT22;29904;51.058;5.378;2022-12-18T04:27:34;-6.40;99.90
44229;DHT22;29904;51.058;5.378;2022-12-18T04:30:00;-6.40;99.90
44229;DHT22;29904;51.058;5.378;2022-12-18T04:32:26;-6.40;99.90
44229;DHT22;29904;51.058;5.378;2022-12-18T04:34:53;-6.40;99.90
44229;DHT22;29904;51.058;5.378;2022-12-18T04:37:19;-6.40;99.90
44229;DHT22;29904;51.058;5.378;2022-12-18T04:39:47;-6.40;99.90
44229;DHT22;29904;51.058;5.378;2022-12-18T04:42:12;-6.40;99.90
44229;DHT22;29904;51.058;5.378;2022-12-18T04:44:38;-6.40;99.90
44229;DHT22;29904;51.058;5.378;2022-12-18T04:47:06;-6.40;99.90
44229;DHT22;29904;51.058;5.378;2022-12-18T04:49:32;-6.40;99.90
44229;DHT22;29904;51.058;5.378;2022-12-18T04:51:58;-6.40;99.90
44229;DHT22;29904;51.058;5.378;2022-12-18T04:54:24;-6.40;99.90
44229;DHT22;29904;51.058;5.378;2022-12-18T04:56:50;-6.40;99.90
44229;DHT22;29904;51.058;5.378;2022-12-18T04:59:16;-6.40;99.90
44229;DHT22;29904;51.058;5.378;2022-12-18T05:01:42;-6.40;99.90
44229;DHT22;29904;51.058;5.378;2022-12-18T05:04:07;-6.40;99.90
44229;DHT22;29904;51.058;5.378;2022-12-18T05:06:33;-6.40;99.90
44229;DHT22;29904;51.058;5.378;2022-12-18T05:08:59;-6.40;99.90
44229;DHT22;29904;51.058;5.378;2022-12-18T05:11:24;-6.40;99.90
44229;DHT22;29904;51.058;5.378;2022-12-18T05:13:50;-6.30;99.90
44229;DHT22;29904;51.058;5.378;2022-12-18T05:16:18;-6.30;99.90
44229;DHT22;29904;51.058;5.378;2022-12-18T05:18:45;-6.30;99.90
44229;DHT22;29904;51.058;5.378;2022-12-18T05:21:11;-6.20;99.90
44229;DHT22;29904;51.058;5.378;2022-12-18T05:23:37;-6.20;99.90
44229;DHT22;29904;51.058;5.378;2022-12-18T05:26:04;-6.20;99.90
44229;DHT22;29904;51.058;5.378;2022-12-18T05:28:32;-6.10;99.90
44229;DHT22;29904;51.058;5.378;2022-12-18T05:31:01;-6.10;99.90
44229;DHT22;29904;51.058;5.378;2022-12-18T05:33:30;-6.10;99.90
44229;DHT22;29904;51.058;5.378;2022-12-18T05:35:59;-6.10;99.90
44229;DHT22;29904;51.058;5.378;2022-12-18T05:38:26;-6.10;99.90
44229;DHT22;29904;51.058;5.378;2022-12-18T05:40:53;-6.10;99.90
44229;DHT22;29904;51.058;5.378;2022-12-18T05:43:20;-6.00;99.90
44229;DHT22;29904;51.058;5.378;2022-12-18T05:45:47;-6.00;99.90
44229;DHT22;29904;51.058;5.378;2022-12-18T05:48:13;-6.00;99.90
44229;DHT22;29904;51.058;5.378;2022-12-18T05:50:41;-6.00;99.90
44229;DHT22;29904;51.058;5.378;2022-12-18T05:53:07;-6.00;99.90
44229;DHT22;29904;51.058;5.378;2022-12-18T05:55:35;-6.00;99.90
44229;DHT22;29904;51.058;5.378;2022-12-18T05:58:03;-6.10;99.90
44229;DHT22;29904;51.058;5.378;2022-12-18T06:00:29;-6.00;99.90
44229;DHT22;29904;51.058;5.378;2022-12-18T06:02:57;-6.00;99.90
44229;DHT22;29904;51.058;5.378;2022-12-18T06:05:23;-6.00;99.90
44229;DHT22;29904;51.058;5.378;2022-12-18T06:07:48;-6.10;99.90
44229;DHT22;29904;51.058;5.378;2022-12-18T06:10:14;-6.10;99.90
44229;DHT22;29904;51.058;5.378;2022-12-18T06:12:39;-6.10;99.90
44229;DHT22;29904;51.058;5.378;2022-12-18T06:15:05;-6.10;99.90
44229;DHT22;29904;51.058;5.378;2022-12-18T06:17:32;-6.10;99.90
44229;DHT22;29904;51.058;5.378;2022-12-18T06:19:58;-6.00;99.90
44229;DHT22;29904;51.058;5.378;2022-12-18T06:22:24;-6.00;99.90
44229;DHT22;29904;51.058;5.378;2022-12-18T06:24:52;-6.10;99.90
44229;DHT22;29904;51.058;5.378;2022-12-18T06:27:18;-6.00;99.90
44229;DHT22;29904;51.058;5.378;2022-12-18T06:29:44;-6.00;99.90
44229;DHT22;29904;51.058;5.378;2022-12-18T06:32:12;-6.00;99.90
44229;DHT22;29904;51.058;5.378;2022-12-18T06:34:38;-6.00;99.90
44229;DHT22;29904;51.058;5.378;2022-12-18T06:37:03;-6.00;99.90
44229;DHT22;29904;51.058;5.378;2022-12-18T06:39:31;-6.00;99.90
44229;DHT22;29904;51.058;5.378;2022-12-18T06:41:57;-6.00;99.90
44229;DHT22;29904;51.058;5.378;2022-12-18T06:44:23;-6.00;99.90
44229;DHT22;29904;51.058;5.378;2022-12-18T06:46:48;-6.00;99.90
44229;DHT22;29904;51.058;5.378;2022-12-18T06:49:15;-6.00;99.90
44229;DHT22;29904;51.058;5.378;2022-12-18T06:51:41;-5.90;99.90
44229;DHT22;29904;51.058;5.378;2022-12-18T06:54:07;-6.00;99.90
44229;DHT22;29904;51.058;5.378;2022-12-18T06:56:33;-6.00;99.90
44229;DHT22;29904;51.058;5.378;2022-12-18T06:58:59;-6.00;99.90
44229;DHT22;29904;51.058;5.378;2022-12-18T07:01:25;-6.00;99.90
44229;DHT22;29904;51.058;5.378;2022-12-18T07:03:53;-6.00;99.90
44229;DHT22;29904;51.058;5.378;2022-12-18T07:06:21;-6.00;99.90
44229;DHT22;29904;51.058;5.378;2022-12-18T07:08:48;-6.00;99.90
44229;DHT22;29904;51.058;5.378;2022-12-18T07:11:14;-6.00;99.90
44229;DHT22;29904;51.058;5.378;2022-12-18T07:13:40;-6.00;99.90
44229;DHT22;29904;51.058;5.378;2022-12-18T07:18:38;-6.00;99.90
44229;DHT22;29904;51.058;5.378;2022-12-18T07:21:05;-6.00;99.90
44229;DHT22;29904;51.058;5.378;2022-12-18T07:23:32;-6.00;99.90
44229;DHT22;29904;51.058;5.378;2022-12-18T07:26:07;-6.00;99.90
44229;DHT22;29904;51.058;5.378;2022-12-18T07:28:35;-6.00;99.90
44229;DHT22;29904;51.058;5.378;2022-12-18T07:31:13;-6.00;99.90
44229;DHT22;29904;51.058;5.378;2022-12-18T07:33:39;-6.00;99.90
44229;DHT22;29904;51.058;5.378;2022-12-18T07:36:06;-6.00;99.90
44229;DHT22;29904;51.058;5.378;2022-12-18T07:38:35;-6.00;99.90
44229;DHT22;29904;51.058;5.378;2022-12-18T07:41:02;-5.90;99.90
44229;DHT22;29904;51.058;5.378;2022-12-18T07:43:28;-5.90;99.90
44229;DHT22;29904;51.058;5.378;2022-12-18T07:45:55;-5.90;99.90
44229;DHT22;29904;51.058;5.378;2022-12-18T07:48:21;-5.90;99.90
44229;DHT22;29904;51.058;5.378;2022-12-18T07:50:47;-5.90;99.90
44229;DHT22;29904;51.058;5.378;2022-12-18T07:53:13;-5.80;99.90
44229;DHT22;29904;51.058;5.378;2022-12-18T07:55:40;-5.80;99.90
44229;DHT22;29904;51.058;5.378;2022-12-18T07:58:07;-5.80;99.90
44229;DHT22;29904;51.058;5.378;2022-12-18T08:00:33;-5.80;99.90
44229;DHT22;29904;51.058;5.378;2022-12-18T08:02:59;-5.80;99.90
44229;DHT22;29904;51.058;5.378;2022-12-18T08:05:25;-5.80;99.90
44229;DHT22;29904;51.058;5.378;2022-12-18T08:07:51;-5.70;99.90
44229;DHT22;29904;51.058;5.378;2022-12-18T08:10:17;-5.70;99.90
44229;DHT22;29904;51.058;5.378;2022-12-18T08:12:43;-5.70;99.90
44229;DHT22;29904;51.058;5.378;2022-12-18T08:15:09;-5.70;99.90
44229;DHT22;29904;51.058;5.378;2022-12-18T08:17:35;-5.70;99.90
44229;DHT22;29904;51.058;5.378;2022-12-18T08:20:00;-5.60;99.90
44229;DHT22;29904;51.058;5.378;2022-12-18T08:22:27;-5.60;99.90
44229;DHT22;29904;51.058;5.378;2022-12-18T08:24:55;-5.50;99.90
44229;DHT22;29904;51.058;5.378;2022-12-18T08:27:21;-5.40;99.90
44229;DHT22;29904;51.058;5.378;2022-12-18T08:29:46;-5.40;99.90
44229;DHT22;29904;51.058;5.378;2022-12-18T08:32:12;-5.30;99.90
44229;DHT22;29904;51.058;5.378;2022-12-18T08:34:38;-5.20;99.90
44229;DHT22;29904;51.058;5.378;2022-12-18T08:37:03;-5.20;99.90
44229;DHT22;29904;51.058;5.378;2022-12-18T08:39:29;-5.10;99.90
44229;DHT22;29904;51.058;5.378;2022-12-18T08:41:55;-5.00;99.90
44229;DHT22;29904;51.058;5.378;2022-12-18T08:44:41;-5.00;99.90
44229;DHT22;29904;51.058;5.378;2022-12-18T08:47:07;-4.90;99.90
44229;DHT22;29904;51.058;5.378;2022-12-18T08:49:34;-4.90;99.90
44229;DHT22;29904;51.058;5.378;2022-12-18T08:52:00;-4.80;99.90
44229;DHT22;29904;51.058;5.378;2022-12-18T08:54:26;-4.70;99.90
44229;DHT22;29904;51.058;5.378;2022-12-18T08:56:52;-4.70;99.90
44229;DHT22;29904;51.058;5.378;2022-12-18T08:59:18;-4.60;99.90
44229;DHT22;29904;51.058;5.378;2022-12-18T09:01:45;-4.50;99.90
44229;DHT22;29904;51.058;5.378;2022-12-18T09:04:12;-4.40;99.90
44229;DHT22;29904;51.058;5.378;2022-12-18T09:06:40;-4.40;99.90
44229;DHT22;29904;51.058;5.378;2022-12-18T09:09:06;-4.30;99.90
44229;DHT22;29904;51.058;5.378;2022-12-18T09:11:32;-4.30;99.90
44229;DHT22;29904;51.058;5.378;2022-12-18T09:14:00;-4.20;99.90
44229;DHT22;29904;51.058;5.378;2022-12-18T09:16:27;-4.20;99.90
44229;DHT22;29904;51.058;5.378;2022-12-18T09:18:55;-4.00;99.90
44229;DHT22;29904;51.058;5.378;2022-12-18T09:21:27;-4.00;99.90
44229;DHT22;29904;51.058;5.378;2022-12-18T09:23:55;-4.00;99.90
44229;DHT22;29904;51.058;5.378;2022-12-18T09:26:22;-3.90;99.90
44229;DHT22;29904;51.058;5.378;2022-12-18T09:28:49;-3.90;99.90
44229;DHT22;29904;51.058;5.378;2022-12-18T09:31:15;-3.80;99.90
44229;DHT22;29904;51.058;5.378;2022-12-18T09:33:41;-3.70;99.90
44229;DHT22;29904;51.058;5.378;2022-12-18T09:36:09;-3.70;99.90
44229;DHT22;29904;51.058;5.378;2022-12-18T09:38:36;-3.60;99.90
44229;DHT22;29904;51.058;5.378;2022-12-18T09:43:53;-3.50;99.90
44229;DHT22;29904;51.058;5.378;2022-12-18T09:46:28;-3.40;99.90
44229;DHT22;29904;51.058;5.378;2022-12-18T09:48:57;-3.40;99.90
44229;DHT22;29904;51.058;5.378;2022-12-18T09:51:37;-3.30;99.90
44229;DHT22;29904;51.058;5.378;2022-12-18T09:54:11;-3.20;99.90
44229;DHT22;29904;51.058;5.378;2022-12-18T09:56:41;-3.10;99.90
44229;DHT22;29904;51.058;5.378;2022-12-18T09:59:23;-3.00;99.90
44229;DHT22;29904;51.058;5.378;2022-12-18T10:01:49;-2.90;99.90
44229;DHT22;29904;51.058;5.378;2022-12-18T10:04:15;-2.90;99.90
44229;DHT22;29904;51.058;5.378;2022-12-18T10:07:19;-2.80;99.90
44229;DHT22;29904;51.058;5.378;2022-12-18T10:15:43;-2.60;99.90
44229;DHT22;29904;51.058;5.378;2022-12-18T10:20:49;-2.40;99.90
44229;DHT22;29904;51.058;5.378;2022-12-18T10:23:51;-2.30;99.90
44229;DHT22;29904;51.058;5.378;2022-12-18T10:26:20;-2.20;99.90
44229;DHT22;29904;51.058;5.378;2022-12-18T10:28:48;-2.20;99.90
44229;DHT22;29904;51.058;5.378;2022-12-18T10:31:19;-2.10;99.90
44229;DHT22;29904;51.058;5.378;2022-12-18T10:33:45;-2.10;99.90
44229;DHT22;29904;51.058;5.378;2022-12-18T10:36:11;-2.10;99.90
44229;DHT22;29904;51.058;5.378;2022-12-18T10:38:37;-2.00;99.90
44229;DHT22;29904;51.058;5.378;2022-12-18T10:43:44;-1.90;99.90
44229;DHT22;29904;51.058;5.378;2022-12-18T10:51:27;-1.80;99.90
44229;DHT22;29904;51.058;5.378;2022-12-18T10:54:17;-1.80;99.90
44229;DHT22;29904;51.058;5.378;2022-12-18T10:56:44;-1.80;99.90
44229;DHT22;29904;51.058;5.378;2022-12-18T10:59:13;-1.80;99.90
44229;DHT22;29904;51.058;5.378;2022-12-18T11:04:22;-1.70;99.90
44229;DHT22;29904;51.058;5.378;2022-12-18T11:06:56;-1.60;99.90
44229;DHT22;29904;51.058;5.378;2022-12-18T11:09:35;-1.60;99.90
44229;DHT22;29904;51.058;5.378;2022-12-18T11:12:20;-1.60;99.90
44229;DHT22;29904;51.058;5.378;2022-12-18T11:14:50;-1.60;99.90
44229;DHT22;29904;51.058;5.378;2022-12-18T11:17:22;-1.50;99.90
44229;DHT22;29904;51.058;5.378;2022-12-18T11:19:59;-1.50;99.90
44229;DHT22;29904;51.058;5.378;2022-12-18T11:22:31;-1.40;99.90
44229;DHT22;29904;51.058;5.378;2022-12-18T11:30:36;-1.30;99.90
44229;DHT22;29904;51.058;5.378;2022-12-18T11:33:05;-1.30;99.90
44229;DHT22;29904;51.058;5.378;2022-12-18T11:35:53;-1.20;99.90
44229;DHT22;29904;51.058;5.378;2022-12-18T11:43:33;-1.10;99.90
44229;DHT22;29904;51.058;5.378;2022-12-18T11:46:05;-1.00;99.90
44229;DHT22;29904;51.058;5.378;2022-12-18T11:48:42;-1.00;99.90
44229;DHT22;29904;51.058;5.378;2022-12-18T11:51:19;-1.00;99.90
44229;DHT22;29904;51.058;5.378;2022-12-18T11:53:48;-1.00;99.90
44229;DHT22;29904;51.058;5.378;2022-12-18T11:59:32;-1.00;99.90
44229;DHT22;29904;51.058;5.378;2022-12-18T12:10:30;-0.80;99.90
44229;DHT22;29904;51.058;5.378;2022-12-18T12:13:27;-0.70;99.90
44229;DHT22;29904;51.058;5.378;2022-12-18T12:18:57;-0.80;99.90
44229;DHT22;29904;51.058;5.378;2022-12-18T12:21:52;-0.70;99.90
44229;DHT22;29904;51.058;5.378;2022-12-18T12:24:59;-0.60;99.90
44229;DHT22;29904;51.058;5.378;2022-12-18T12:27:51;-0.60;99.90
44229;DHT22;29904;51.058;5.378;2022-12-18T12:30:40;-0.60;99.90
44229;DHT22;29904;51.058;5.378;2022-12-18T12:38:57;-0.40;99.90
44229;DHT22;29904;51.058;5.378;2022-12-18T12:41:27;-0.40;99.90
44229;DHT22;29904;51.058;5.378;2022-12-18T12:44:24;-0.40;99.90
44229;DHT22;29904;51.058;5.378;2022-12-18T12:46:52;-0.40;99.90
44229;DHT22;29904;51.058;5.378;2022-12-18T12:49:21;-0.30;99.90
44229;DHT22;29904;51.058;5.378;2022-12-18T12:52:03;-0.30;99.90
44229;DHT22;29904;51.058;5.378;2022-12-18T12:54:32;-0.30;99.90
44229;DHT22;29904;51.058;5.378;2022-12-18T13:08:25;-0.10;99.90
44229;DHT22;29904;51.058;5.378;2022-12-18T13:10:54;-0.10;99.90
44229;DHT22;29904;51.058;5.378;2022-12-18T13:13:53;0.00;99.90
44229;DHT22;29904;51.058;5.378;2022-12-18T13:16:24;0.00;99.90
44229;DHT22;29904;51.058;5.378;2022-12-18T13:18:51;0.10;99.90
44229;DHT22;29904;51.058;5.378;2022-12-18T13:21:24;0.10;99.90
44229;DHT22;29904;51.058;5.378;2022-12-18T13:23:53;0.20;99.90
44229;DHT22;29904;51.058;5.378;2022-12-18T13:34:21;0.30;99.90
44229;DHT22;29904;51.058;5.378;2022-12-18T13:36:48;0.30;99.90
44229;DHT22;29904;51.058;5.378;2022-12-18T13:41:46;0.40;99.90
44229;DHT22;29904;51.058;5.378;2022-12-18T13:44:22;0.40;99.90
44229;DHT22;29904;51.058;5.378;2022-12-18T13:46:50;0.40;99.90
44229;DHT22;29904;51.058;5.378;2022-12-18T13:49:38;0.50;99.90
44229;DHT22;29904;51.058;5.378;2022-12-18T13:52:17;0.50;99.90
44229;DHT22;29904;51.058;5.378;2022-12-18T13:54:47;0.50;99.90
44229;DHT22;29904;51.058;5.378;2022-12-18T13:57:35;0.50;99.90
44229;DHT22;29904;51.058;5.378;2022-12-18T14:02:49;0.50;99.90
44229;DHT22;29904;51.058;5.378;2022-12-18T14:07:51;0.50;99.90
44229;DHT22;29904;51.058;5.378;2022-12-18T14:10:18;0.50;99.90
44229;DHT22;29904;51.058;5.378;2022-12-18T14:12:48;0.50;99.90
44229;DHT22;29904;51.058;5.378;2022-12-18T14:17:57;0.40;99.90
44229;DHT22;29904;51.058;5.378;2022-12-18T14:20:25;0.40;99.90
44229;DHT22;29904;51.058;5.378;2022-12-18T14:22:53;0.40;99.90
44229;DHT22;29904;51.058;5.378;2022-12-18T14:25:27;0.40;99.90
44229;DHT22;29904;51.058;5.378;2022-12-18T14:30:44;0.40;99.90
44229;DHT22;29904;51.058;5.378;2022-12-18T14:33:19;0.40;99.90
44229;DHT22;29904;51.058;5.378;2022-12-18T14:35:56;0.50;99.90
44229;DHT22;29904;51.058;5.378;2022-12-18T14:38:24;0.40;99.90
44229;DHT22;29904;51.058;5.378;2022-12-18T14:40:56;0.40;99.90
44229;DHT22;29904;51.058;5.378;2022-12-18T14:43:22;0.40;99.90
44229;DHT22;29904;51.058;5.378;2022-12-18T14:45:48;0.40;99.90
44229;DHT22;29904;51.058;5.378;2022-12-18T14:48:35;0.40;99.90
44229;DHT22;29904;51.058;5.378;2022-12-18T14:53:34;0.50;99.90
44229;DHT22;29904;51.058;5.378;2022-12-18T14:56:02;0.50;99.90
44229;DHT22;29904;51.058;5.378;2022-12-18T14:58:28;0.50;99.90
44229;DHT22;29904;51.058;5.378;2022-12-18T15:00:53;0.60;99.90
44229;DHT22;29904;51.058;5.378;2022-12-18T15:03:20;0.50;99.90
44229;DHT22;29904;51.058;5.378;2022-12-18T15:05:47;0.60;99.90
44229;DHT22;29904;51.058;5.378;2022-12-18T15:08:35;0.50;99.90
44229;DHT22;29904;51.058;5.378;2022-12-18T15:11:02;0.50;99.90
44229;DHT22;29904;51.058;5.378;2022-12-18T15:13:28;0.50;99.90
44229;DHT22;29904;51.058;5.378;2022-12-18T15:15:57;0.50;99.90
44229;DHT22;29904;51.058;5.378;2022-12-18T15:18:32;0.40;99.90
44229;DHT22;29904;51.058;5.378;2022-12-18T15:21:07;0.40;99.90
44229;DHT22;29904;51.058;5.378;2022-12-18T15:26:12;0.30;99.90
44229;DHT22;29904;51.058;5.378;2022-12-18T15:28:46;0.40;99.90
44229;DHT22;29904;51.058;5.378;2022-12-18T15:36:33;0.30;99.90
44229;DHT22;29904;51.058;5.378;2022-12-18T15:39:02;0.40;99.90
44229;DHT22;29904;51.058;5.378;2022-12-18T15:41:32;0.50;99.90
44229;DHT22;29904;51.058;5.378;2022-12-18T15:44:01;0.50;99.90
44229;DHT22;29904;51.058;5.378;2022-12-18T15:46:26;0.50;99.90
44229;DHT22;29904;51.058;5.378;2022-12-18T15:48:57;0.50;99.90
44229;DHT22;29904;51.058;5.378;2022-12-18T15:51:37;0.60;99.90
44229;DHT22;29904;51.058;5.378;2022-12-18T15:54:05;0.50;99.90
44229;DHT22;29904;51.058;5.378;2022-12-18T15:56:31;0.50;99.90
44229;DHT22;29904;51.058;5.378;2022-12-18T15:59:18;0.40;99.90
44229;DHT22;29904;51.058;5.378;2022-12-18T16:01:48;0.30;99.90
44229;DHT22;29904;51.058;5.378;2022-12-18T16:04:16;0.30;99.90
44229;DHT22;29904;51.058;5.378;2022-12-18T16:06:42;0.30;99.90
44229;DHT22;29904;51.058;5.378;2022-12-18T16:09:08;0.30;99.90
44229;DHT22;29904;51.058;5.378;2022-12-18T16:11:36;0.30;99.90
44229;DHT22;29904;51.058;5.378;2022-12-18T16:14:27;0.40;99.90
44229;DHT22;29904;51.058;5.378;2022-12-18T16:16:58;0.50;99.90
44229;DHT22;29904;51.058;5.378;2022-12-18T16:19:25;0.50;99.90
44229;DHT22;29904;51.058;5.378;2022-12-18T16:21:52;0.50;99.90
44229;DHT22;29904;51.058;5.378;2022-12-18T16:24:20;0.40;99.90
44229;DHT22;29904;51.058;5.378;2022-12-18T16:26:47;0.50;99.90
44229;DHT22;29904;51.058;5.378;2022-12-18T16:29:14;0.40;99.90
44229;DHT22;29904;51.058;5.378;2022-12-18T16:31:42;0.40;99.90
44229;DHT22;29904;51.058;5.378;2022-12-18T16:34:26;0.50;99.90
44229;DHT22;29904;51.058;5.378;2022-12-18T16:36:58;0.50;99.90
44229;DHT22;29904;51.058;5.378;2022-12-18T16:39:26;0.50;99.90
44229;DHT22;29904;51.058;5.378;2022-12-18T16:41:52;0.40;99.90
44229;DHT22;29904;51.058;5.378;2022-12-18T16:44:18;0.50;99.90
44229;DHT22;29904;51.058;5.378;2022-12-18T16:46:46;0.50;99.90
44229;DHT22;29904;51.058;5.378;2022-12-18T16:49:13;0.60;99.90
44229;DHT22;29904;51.058;5.378;2022-12-18T16:51:39;0.60;99.90
44229;DHT22;29904;51.058;5.378;2022-12-18T16:54:07;0.60;99.90
44229;DHT22;29904;51.058;5.378;2022-12-18T16:56:33;0.60;99.90
44229;DHT22;29904;51.058;5.378;2022-12-18T16:59:00;0.70;99.90
44229;DHT22;29904;51.058;5.378;2022-12-18T17:01:27;0.70;99.90
44229;DHT22;29904;51.058;5.378;2022-12-18T17:03:59;0.70;99.90
44229;DHT22;29904;51.058;5.378;2022-12-18T17:06:27;0.70;99.90
44229;DHT22;29904;51.058;5.378;2022-12-18T17:08:57;0.80;99.90
44229;DHT22;29904;51.058;5.378;2022-12-18T17:11:25;0.80;99.90
44229;DHT22;29904;51.058;5.378;2022-12-18T17:13:51;0.90;99.90
44229;DHT22;29904;51.058;5.378;2022-12-18T17:16:17;0.90;99.90
44229;DHT22;29904;51.058;5.378;2022-12-18T17:18:43;0.90;99.90
44229;DHT22;29904;51.058;5.378;2022-12-18T17:21:10;1.00;99.90
44229;DHT22;29904;51.058;5.378;2022-12-18T17:23:39;1.00;99.90
44229;DHT22;29904;51.058;5.378;2022-12-18T17:26:05;1.00;99.90
44229;DHT22;29904;51.058;5.378;2022-12-18T17:28:35;1.10;99.90
44229;DHT22;29904;51.058;5.378;2022-12-18T17:31:01;1.10;99.90
44229;DHT22;29904;51.058;5.378;2022-12-18T17:33:26;1.10;99.90
44229;DHT22;29904;51.058;5.378;2022-12-18T17:35:52;1.20;99.90
44229;DHT22;29904;51.058;5.378;2022-12-18T17:38:18;1.20;99.90
44229;DHT22;29904;51.058;5.378;2022-12-18T17:40:44;1.20;99.90
44229;DHT22;29904;51.058;5.378;2022-12-18T17:43:12;1.30;99.90
44229;DHT22;29904;51.058;5.378;2022-12-18T17:45:38;1.20;99.90
44229;DHT22;29904;51.058;5.378;2022-12-18T17:48:05;1.30;99.90
44229;DHT22;29904;51.058;5.378;2022-12-18T17:50:33;1.40;99.90
44229;DHT22;29904;51.058;5.378;2022-12-18T17:52:59;2.70;99.90
44229;DHT22;29904;51.058;5.378;2022-12-18T17:55:25;1.30;99.90
44229;DHT22;29904;51.058;5.378;2022-12-18T17:57:51;1.40;99.90
44229;DHT22;29904;51.058;5.378;2022-12-18T18:00:17;1.40;99.90
44229;DHT22;29904;51.058;5.378;2022-12-18T18:02:43;1.50;99.90